A05 weather

Harrismith Airport
Harrismith, Western Australia, Australia

Public forecast

Using degrees Celsius for public forecast. Weather courtesy of forecast.io.

Closest aviation weather report (METAR) to Harrismith Airport

Closest report is Perth Jandakot Airport, 112.5 nm (208.4 km) WNW. Retrieved 2019/10/23 06:30 UTC (16 minutes ago):

YPJT 230630Z AUTO 28012KT 9999 // SCT022 SCT030 OVC039 20/14 Q1016

Closest aviation forecast (TAF) to Harrismith Airport

Closest forecast is Perth Jandakot Airport, 112.5 nm (208.4 km) WNW. Retrieved 2019/10/23 06:00 UTC (46 minutes ago):

TAF YPJT 230502Z 2306/2324 25014KT 9999 -SHRA BKN030 FM230900 21012KT 9999 -SHRA BKN030 FM231300 21011KT 9999 NSW SCT025 INTER 2306/2311 4000 SHRA BKN010